Time;durP1;ratioP1;P1;durP2;ratioP2;P2;SDS_P1;SDS_P2;PMS_P1;PMS_P2;Temp;Humidity;BMP_temperature;BMP_pressure;BME280_temperature;BME280_humidity;BME280_pressure;Samples;Min_cycle;Max_cycle;Signal;HPM_P1;HPM_P2
2021/12/18 00:01:26;;;;;;;14.20;7.90;;;5.10;99.90;;;;;;5050031;28;20277;-93
2021/12/18 00:03:53;;;;;;;15.33;8.27;;;5.10;99.90;;;;;;5049761;28;20281;-89
2021/12/18 00:06:19;;;;;;;11.23;7.75;;;5.10;99.90;;;;;;5017363;28;20990;-93
2021/12/18 00:08:45;;;;;;;13.23;8.15;;;5.10;99.90;;;;;;5049769;28;20225;-91
2021/12/18 00:11:11;;;;;;;10.70;6.80;;;5.10;99.90;;;;;;5049935;28;20194;-93
2021/12/18 00:13:37;;;;;;;15.40;8.25;;;5.10;99.90;;;;;;5051112;28;20403;-91
2021/12/18 00:16:04;;;;;;;10.90;7.53;;;5.10;99.90;;;;;;5049809;28;20203;-87
2021/12/18 00:18:31;;;;;;;14.38;7.40;;;5.10;99.90;;;;;;5034031;28;20185;-93
2021/12/18 00:20:58;;;;;;;11.40;6.75;;;5.00;99.90;;;;;;5034370;28;20197;-88
2021/12/18 00:23:25;;;;;;;14.68;8.55;;;5.00;99.90;;;;;;5052844;28;20182;-88
2021/12/18 00:25:51;;;;;;;13.15;8.45;;;5.00;99.90;;;;;;5054019;28;20190;-91
2021/12/18 00:28:16;;;;;;;13.27;7.47;;;5.00;99.90;;;;;;5053878;28;20214;-86
2021/12/18 00:30:42;;;;;;;12.40;8.00;;;5.00;99.90;;;;;;5053329;28;20194;-87
2021/12/18 00:33:09;;;;;;;15.23;7.82;;;4.90;99.90;;;;;;5020105;28;20244;-87
2021/12/18 00:35:35;;;;;;;15.10;7.70;;;4.90;99.90;;;;;;5057336;28;20559;-92
2021/12/18 00:38:05;;;;;;;12.13;7.35;;;4.90;99.90;;;;;;5038176;28;20225;-88
2021/12/18 00:40:44;;;;;;;9.70;7.07;;;4.90;99.90;;;;;;5053685;28;20228;-88
2021/12/18 00:43:28;;;;;;;11.75;8.10;;;4.90;99.90;;;;;;5021015;28;20632;-87
2021/12/18 00:45:54;;;;;;;11.75;7.53;;;4.80;99.90;;;;;;5020199;28;20191;-87
2021/12/18 00:48:20;;;;;;;13.57;8.00;;;4.80;99.90;;;;;;5020207;28;20250;-93
2021/12/18 00:50:46;;;;;;;11.88;7.60;;;4.80;99.90;;;;;;5053179;28;20419;-93
2021/12/18 00:53:12;;;;;;;11.77;7.60;;;4.80;99.90;;;;;;5038175;28;20186;-91
2021/12/18 00:55:38;;;;;;;13.87;7.97;;;4.80;99.90;;;;;;5021352;28;20797;-86
2021/12/18 00:58:04;;;;;;;9.73;7.75;;;4.80;99.90;;;;;;5038427;28;20702;-86
2021/12/18 01:00:30;;;;;;;9.93;7.53;;;4.80;99.90;;;;;;5019926;28;20206;-87
2021/12/18 01:03:00;;;;;;;11.77;7.70;;;4.80;99.90;;;;;;5038210;28;20433;-87
2021/12/18 01:05:28;;;;;;;10.00;6.88;;;4.80;99.90;;;;;;5037723;28;20198;-87
2021/12/18 01:07:56;;;;;;;12.82;8.57;;;4.80;99.90;;;;;;5052985;28;20620;-87
2021/12/18 01:13:10;;;;;;;10.90;8.57;;;4.70;99.90;;;;;;5037702;28;20182;-88
2021/12/18 01:15:41;;;;;;;12.77;8.35;;;4.70;99.90;;;;;;5052670;28;20187;-92
2021/12/18 01:23:35;;;;;;;14.77;7.90;;;4.70;99.90;;;;;;5037704;28;20254;-92
2021/12/18 01:26:03;;;;;;;12.33;8.17;;;4.70;99.90;;;;;;5037409;28;20669;-92
2021/12/18 01:28:30;;;;;;;11.75;7.53;;;4.60;99.90;;;;;;5037217;28;20438;-88
2021/12/18 01:30:56;;;;;;;15.45;8.55;;;4.60;99.90;;;;;;5037393;28;20293;-92
2021/12/18 01:33:22;;;;;;;10.88;8.70;;;4.60;99.90;;;;;;5019645;28;20194;-91
2021/12/18 01:35:49;;;;;;;12.07;7.73;;;4.60;99.90;;;;;;5060148;28;20194;-92
2021/12/18 01:38:15;;;;;;;12.68;8.35;;;4.50;99.90;;;;;;5037576;28;20221;-92
2021/12/18 01:40:41;;;;;;;12.70;8.37;;;4.50;99.90;;;;;;5066669;28;20186;-91
2021/12/18 01:53:38;;;;;;;14.18;8.50;;;4.40;99.90;;;;;;5037143;28;20669;-92
2021/12/18 01:56:04;;;;;;;12.38;7.20;;;4.40;99.90;;;;;;5018995;28;20199;-92
2021/12/18 01:58:31;;;;;;;15.00;8.55;;;4.40;99.90;;;;;;5019151;28;20655;-92
2021/12/18 02:00:58;;;;;;;12.25;8.52;;;4.40;99.90;;;;;;5036506;28;20667;-87
2021/12/18 02:03:24;;;;;;;11.02;7.47;;;4.40;99.90;;;;;;5052017;28;20209;-93
2021/12/18 02:05:51;;;;;;;10.43;7.65;;;4.40;99.90;;;;;;5052035;28;20205;-87
2021/12/18 02:08:23;;;;;;;14.07;8.32;;;4.40;99.90;;;;;;5052327;28;20679;-92
2021/12/18 02:10:56;;;;;;;9.77;7.53;;;4.40;99.90;;;;;;5052634;28;20201;-93
2021/12/18 02:13:39;;;;;;;13.32;7.70;;;4.40;99.90;;;;;;5051874;28;20179;-87
2021/12/18 02:21:34;;;;;;;14.95;7.13;;;4.40;99.90;;;;;;5053355;28;20225;-88
2021/12/18 02:24:01;;;;;;;9.48;7.40;;;4.50;99.90;;;;;;5041788;28;20178;-92
2021/12/18 02:26:27;;;;;;;13.10;8.05;;;4.40;99.90;;;;;;5057643;28;20190;-87
2021/12/18 02:28:55;;;;;;;11.40;7.33;;;4.40;99.90;;;;;;5018396;28;20280;-88
2021/12/18 02:31:21;;;;;;;17.30;8.82;;;4.50;99.90;;;;;;5018448;28;20541;-91
2021/12/18 02:33:47;;;;;;;11.37;7.70;;;4.40;99.90;;;;;;5036169;28;20185;-88
2021/12/18 02:36:22;;;;;;;14.60;8.02;;;4.50;99.90;;;;;;5018457;28;20415;-92
2021/12/18 02:44:05;;;;;;;11.70;7.28;;;4.40;99.90;;;;;;5036742;28;20425;-87
2021/12/18 02:46:31;;;;;;;12.73;8.57;;;4.50;99.90;;;;;;5019055;28;20198;-92
2021/12/18 02:49:03;;;;;;;11.48;7.35;;;4.50;99.90;;;;;;5035791;28;20569;-93
2021/12/18 02:51:29;;;;;;;12.02;7.47;;;4.40;99.90;;;;;;5018254;28;20285;-88
2021/12/18 02:53:55;;;;;;;10.27;7.22;;;4.40;99.90;;;;;;5052358;28;20175;-90
2021/12/18 02:56:23;;;;;;;11.53;7.73;;;4.40;99.90;;;;;;5035854;28;20270;-90
2021/12/18 02:58:51;;;;;;;13.27;7.95;;;4.40;99.90;;;;;;5035651;28;20584;-88
2021/12/18 03:01:20;;;;;;;12.48;6.82;;;4.40;99.90;;;;;;5018351;28;20203;-92
2021/12/18 03:03:48;;;;;;;12.10;7.50;;;4.40;99.90;;;;;;5050931;28;20189;-92
2021/12/18 03:24:31;;;;;;;12.40;7.27;;;4.60;99.90;;;;;;5046487;28;20655;-88
2021/12/18 03:26:57;;;;;;;13.50;6.45;;;4.60;99.90;;;;;;5051799;28;20189;-87
2021/12/18 03:29:23;;;;;;;10.67;7.13;;;4.60;99.90;;;;;;5046330;28;20178;-88
2021/12/18 03:31:49;;;;;;;21.63;10.20;;;4.60;99.90;;;;;;5035297;28;20948;-92
2021/12/18 03:34:15;;;;;;;18.37;10.50;;;4.60;99.90;;;;;;5050380;28;20812;-92
2021/12/18 03:36:40;;;;;;;19.70;10.13;;;4.70;99.90;;;;;;5017189;28;20538;-87
2021/12/18 03:39:06;;;;;;;14.53;9.73;;;4.70;99.90;;;;;;5034842;28;20171;-87
2021/12/18 03:41:44;;;;;;;21.60;10.17;;;4.70;99.90;;;;;;5035032;28;20497;-93
2021/12/18 03:44:11;;;;;;;16.23;9.45;;;4.70;99.90;;;;;;5050539;28;20424;-88
2021/12/18 03:46:37;;;;;;;13.98;8.32;;;4.70;99.90;;;;;;5049968;28;20202;-92
2021/12/18 03:49:03;;;;;;;12.10;8.10;;;4.70;99.90;;;;;;5034765;28;20280;-93
2021/12/18 03:51:30;;;;;;;16.98;8.70;;;4.70;99.90;;;;;;5049793;28;20352;-88
2021/12/18 03:53:55;;;;;;;13.00;7.15;;;4.70;99.90;;;;;;5034506;28;20655;-87
2021/12/18 03:56:21;;;;;;;17.10;8.40;;;4.70;99.90;;;;;;5049775;28;20305;-93
2021/12/18 03:58:47;;;;;;;14.60;7.80;;;4.80;99.90;;;;;;5050334;28;20262;-88
2021/12/18 04:01:13;;;;;;;13.53;7.60;;;4.70;99.90;;;;;;5035358;28;20260;-87
2021/12/18 04:03:38;;;;;;;18.60;8.20;;;4.80;99.90;;;;;;5035966;28;20170;-92
2021/12/18 04:06:04;;;;;;;20.37;9.53;;;4.80;99.90;;;;;;5037869;28;20731;-87
2021/12/18 04:08:30;;;;;;;18.10;8.40;;;4.80;99.90;;;;;;5034319;28;20517;-88
2021/12/18 04:10:55;;;;;;;15.10;9.13;;;4.80;99.90;;;;;;5049595;28;20638;-91
2021/12/18 04:13:21;;;;;;;17.13;9.63;;;4.80;99.90;;;;;;5049379;28;20658;-86
2021/12/18 04:15:47;;;;;;;15.57;9.27;;;4.80;99.90;;;;;;5049548;28;20225;-87
2021/12/18 04:18:13;;;;;;;20.13;8.07;;;4.80;99.90;;;;;;5016852;28;20408;-91
2021/12/18 04:20:39;;;;;;;14.43;8.83;;;4.80;99.90;;;;;;5049495;28;20198;-93
2021/12/18 04:23:04;;;;;;;17.75;9.05;;;4.80;99.90;;;;;;5016689;28;20181;-87
2021/12/18 04:25:31;;;;;;;13.10;7.90;;;4.80;99.90;;;;;;5049633;28;20195;-87
2021/12/18 04:27:56;;;;;;;14.15;8.00;;;4.80;99.90;;;;;;5050028;28;20269;-88
2021/12/18 04:30:22;;;;;;;12.53;8.37;;;4.80;99.90;;;;;;5049450;28;20222;-88
2021/12/18 04:32:48;;;;;;;14.90;8.53;;;4.80;99.90;;;;;;5050026;28;20886;-93
2021/12/18 04:35:14;;;;;;;10.77;7.47;;;4.80;99.90;;;;;;5049789;28;20294;-92
2021/12/18 04:37:39;;;;;;;10.33;7.23;;;4.80;99.90;;;;;;5049691;28;20182;-92
2021/12/18 04:40:06;;;;;;;9.73;7.40;;;4.80;99.90;;;;;;5016456;28;20871;-88
2021/12/18 04:42:32;;;;;;;13.57;8.30;;;4.80;99.90;;;;;;5034222;28;20410;-93
2021/12/18 04:44:58;;;;;;;10.60;7.30;;;4.80;99.90;;;;;;5016483;28;20289;-87
2021/12/18 04:47:24;;;;;;;13.93;8.20;;;4.80;99.90;;;;;;5015942;28;20457;-93
2021/12/18 04:49:50;;;;;;;13.73;8.77;;;4.80;99.90;;;;;;5033771;28;20209;-87
2021/12/18 04:52:15;;;;;;;17.03;9.17;;;4.80;99.90;;;;;;5016412;28;20914;-87
2021/12/18 04:54:41;;;;;;;17.87;9.53;;;4.80;99.90;;;;;;5049648;28;20182;-93
2021/12/18 04:57:07;;;;;;;13.30;7.67;;;4.80;99.90;;;;;;5049494;28;20229;-88
2021/12/18 04:59:32;;;;;;;14.50;7.90;;;4.80;99.90;;;;;;5016395;28;20198;-93
2021/12/18 05:01:58;;;;;;;13.30;8.40;;;4.80;99.90;;;;;;5050008;28;20197;-87
2021/12/18 05:04:24;;;;;;;13.00;7.28;;;4.80;99.90;;;;;;5034592;28;20276;-87
2021/12/18 05:06:52;;;;;;;13.73;8.27;;;4.80;99.90;;;;;;5017070;28;20278;-92
2021/12/18 05:09:18;;;;;;;11.60;7.68;;;4.80;99.90;;;;;;5051723;28;20183;-87
2021/12/18 05:11:44;;;;;;;16.38;7.50;;;4.80;99.90;;;;;;5020435;28;20598;-92
2021/12/18 05:14:11;;;;;;;8.02;6.28;;;4.80;99.90;;;;;;5039013;28;20178;-87
2021/12/18 05:16:37;;;;;;;10.80;8.18;;;4.80;99.90;;;;;;5038677;28;20194;-88
2021/12/18 05:19:03;;;;;;;12.75;7.70;;;4.70;99.90;;;;;;5059400;28;20212;-87
2021/12/18 05:21:29;;;;;;;11.40;7.70;;;4.80;99.90;;;;;;5038063;28;20213;-87
2021/12/18 05:23:55;;;;;;;9.37;6.70;;;4.80;99.90;;;;;;5053175;28;20174;-92
2021/12/18 05:26:21;;;;;;;15.33;8.50;;;4.80;99.90;;;;;;5037123;28;20226;-92
2021/12/18 05:28:46;;;;;;;12.73;7.50;;;4.80;99.90;;;;;;5019405;28;20214;-92
2021/12/18 05:31:16;;;;;;;15.40;7.73;;;4.80;99.90;;;;;;5052718;28;20207;-88
2021/12/18 05:33:47;;;;;;;13.43;6.68;;;4.80;99.90;;;;;;5054183;28;20530;-92
2021/12/18 05:39:11;;;;;;;12.43;8.05;;;4.80;99.90;;;;;;5025186;28;20202;-87
2021/12/18 05:41:38;;;;;;;13.43;7.28;;;4.80;99.90;;;;;;5052508;28;20207;-87
2021/12/18 05:44:05;;;;;;;15.57;8.43;;;4.70;99.90;;;;;;5052562;28;20652;-92
2021/12/18 05:46:31;;;;;;;13.95;8.00;;;4.70;99.90;;;;;;5053124;28;20225;-93
2021/12/18 05:48:57;;;;;;;12.03;7.73;;;4.70;99.90;;;;;;5052103;28;20234;-90
2021/12/18 05:51:22;;;;;;;13.83;7.90;;;4.70;99.90;;;;;;5036712;28;20414;-93
2021/12/18 05:53:48;;;;;;;12.60;8.70;;;4.70;99.90;;;;;;5052440;28;20205;-87
2021/12/18 05:56:14;;;;;;;13.13;7.53;;;4.70;99.90;;;;;;5052139;28;20447;-87
2021/12/18 05:58:41;;;;;;;11.93;7.67;;;4.70;99.90;;;;;;5052014;28;20224;-87
2021/12/18 06:01:07;;;;;;;16.50;8.32;;;4.70;99.90;;;;;;5036487;28;20431;-93
2021/12/18 06:03:33;;;;;;;11.45;7.85;;;4.70;99.90;;;;;;5036561;28;20190;-92
2021/12/18 06:05:59;;;;;;;11.70;8.17;;;4.70;99.90;;;;;;5052374;28;20205;-93
2021/12/18 06:08:26;;;;;;;13.45;7.90;;;4.70;99.90;;;;;;5036779;28;20830;-87
2021/12/18 06:10:52;;;;;;;12.85;7.70;;;4.80;99.90;;;;;;5052712;28;20655;-87
2021/12/18 06:13:18;;;;;;;13.47;7.87;;;4.70;99.90;;;;;;5053366;28;20236;-86
2021/12/18 06:15:43;;;;;;;11.57;7.50;;;4.80;99.90;;;;;;5054275;28;20194;-92
2021/12/18 06:18:09;;;;;;;9.50;7.20;;;4.70;99.90;;;;;;5051178;28;20242;-90
2021/12/18 06:20:35;;;;;;;16.37;8.77;;;4.80;99.90;;;;;;5062357;28;20199;-87
2021/12/18 06:23:01;;;;;;;12.17;7.20;;;4.80;99.90;;;;;;5051792;28;20214;-91
2021/12/18 06:25:26;;;;;;;13.93;7.90;;;4.80;99.90;;;;;;5020157;28;20194;-86
2021/12/18 06:27:53;;;;;;;9.67;7.10;;;4.80;99.90;;;;;;5051768;28;20210;-87
2021/12/18 06:30:19;;;;;;;13.25;8.98;;;4.70;99.90;;;;;;5051614;28;20440;-87
2021/12/18 06:32:45;;;;;;;10.55;7.57;;;4.80;99.90;;;;;;5051661;28;20278;-92
2021/12/18 06:35:11;;;;;;;10.63;7.13;;;4.80;99.90;;;;;;5051507;28;20679;-93
2021/12/18 06:37:37;;;;;;;14.97;8.37;;;4.80;99.90;;;;;;5037587;28;20514;-87
2021/12/18 06:40:04;;;;;;;11.43;8.23;;;4.80;99.90;;;;;;5051486;28;20414;-92
2021/12/18 06:42:30;;;;;;;12.45;7.40;;;4.70;99.90;;;;;;5036398;28;20202;-93
2021/12/18 06:44:56;;;;;;;10.70;7.27;;;4.70;99.90;;;;;;5036271;28;20220;-87
2021/12/18 06:47:22;;;;;;;12.10;7.53;;;4.70;99.90;;;;;;5051067;28;20442;-88
2021/12/18 06:49:47;;;;;;;12.53;7.93;;;4.80;99.90;;;;;;5018303;28;20241;-92
2021/12/18 06:52:13;;;;;;;9.83;6.53;;;4.80;99.90;;;;;;5057715;28;20194;-87
2021/12/18 06:54:39;;;;;;;12.83;7.13;;;4.80;99.90;;;;;;5061632;28;20593;-87
2021/12/18 06:57:05;;;;;;;12.20;7.60;;;4.80;99.90;;;;;;5045606;28;20891;-87
2021/12/18 06:59:30;;;;;;;10.80;7.60;;;4.70;99.90;;;;;;5034603;28;20198;-87
2021/12/18 07:01:56;;;;;;;10.73;6.75;;;4.70;99.90;;;;;;5053136;28;20193;-91
2021/12/18 07:04:24;;;;;;;9.87;7.30;;;4.70;99.90;;;;;;5051671;28;20655;-87
2021/12/18 07:06:51;;;;;;;15.48;8.10;;;4.60;99.90;;;;;;5035594;28;20202;-87
2021/12/18 07:09:17;;;;;;;13.07;7.88;;;4.60;99.90;;;;;;5035336;28;20190;-87
2021/12/18 07:11:44;;;;;;;10.87;7.93;;;4.60;99.90;;;;;;5017393;28;20316;-88
2021/12/18 07:14:10;;;;;;;10.90;7.00;;;4.60;99.90;;;;;;5050685;28;20651;-93
2021/12/18 07:16:35;;;;;;;12.50;7.30;;;4.60;99.90;;;;;;5051565;28;20206;-92
2021/12/18 07:19:01;;;;;;;15.63;9.40;;;4.70;99.90;;;;;;5035371;28;20396;-92
2021/12/18 07:21:27;;;;;;;12.87;8.47;;;4.70;99.90;;;;;;5050506;28;20202;-86
2021/12/18 07:23:52;;;;;;;10.10;8.10;;;4.70;99.90;;;;;;5018004;28;20179;-91
2021/12/18 07:26:18;;;;;;;18.13;10.50;;;4.80;99.90;;;;;;5035011;28;20222;-93
2021/12/18 07:28:44;;;;;;;16.63;10.20;;;4.90;99.90;;;;;;5017662;28;20226;-90
2021/12/18 07:31:10;;;;;;;13.30;7.90;;;4.90;99.90;;;;;;5049951;28;20198;-88
2021/12/18 07:33:37;;;;;;;13.43;9.15;;;5.10;99.90;;;;;;5050058;28;20175;-92
2021/12/18 07:36:06;;;;;;;13.15;7.78;;;5.50;99.90;;;;;;5050866;28;20206;-87
2021/12/18 07:38:31;;;;;;;12.90;7.93;;;5.90;99.90;;;;;;5035165;28;20167;-87
2021/12/18 07:40:57;;;;;;;12.30;7.77;;;6.30;99.90;;;;;;5035032;28;20208;-87
2021/12/18 07:43:23;;;;;;;10.83;7.17;;;6.80;99.90;;;;;;5050106;28;20182;-91
2021/12/18 07:45:48;;;;;;;12.80;7.23;;;7.20;99.90;;;;;;5016375;28;20211;-87
2021/12/18 07:48:14;;;;;;;11.37;7.10;;;7.70;99.90;;;;;;5032191;28;20279;-88
2021/12/18 07:50:40;;;;;;;11.80;7.50;;;8.40;99.90;;;;;;5015523;28;20725;-94
2021/12/18 07:53:05;;;;;;;9.83;6.40;;;9.10;99.90;;;;;;5033394;28;20175;-91
2021/12/18 07:55:32;;;;;;;8.70;5.73;;;9.80;99.90;;;;;;5016328;28;20203;-89
2021/12/18 07:57:57;;;;;;;14.60;7.03;;;10.50;99.90;;;;;;5034304;28;20239;-92
2021/12/18 08:00:24;;;;;;;9.10;6.97;;;11.40;99.90;;;;;;5016602;28;20280;-93
2021/12/18 08:02:50;;;;;;;11.65;6.30;;;12.20;99.90;;;;;;5017350;28;20895;-93
2021/12/18 08:05:16;;;;;;;7.60;6.20;;;12.90;99.90;;;;;;5018641;28;20281;-88
2021/12/18 08:07:42;;;;;;;7.17;6.00;;;13.50;99.90;;;;;;5033383;28;20450;-88
2021/12/18 08:10:08;;;;;;;7.05;6.22;;;13.90;99.90;;;;;;5046535;28;20225;-87
2021/12/18 08:12:34;;;;;;;7.67;6.00;;;14.30;99.90;;;;;;5032306;28;20226;-88
2021/12/18 08:15:00;;;;;;;9.87;5.90;;;14.60;99.90;;;;;;5014653;28;20427;-88
2021/12/18 08:17:26;;;;;;;6.97;5.80;;;14.80;99.80;;;;;;5032776;28;20174;-88
2021/12/18 08:19:51;;;;;;;7.40;6.20;;;15.00;99.00;;;;;;5015286;28;20414;-89
2021/12/18 08:22:17;;;;;;;6.50;5.20;;;15.10;98.10;;;;;;5016669;28;20473;-93
2021/12/18 08:24:43;;;;;;;7.90;5.67;;;15.10;97.70;;;;;;5035674;28;20170;-88
2021/12/18 08:27:09;;;;;;;8.23;5.53;;;15.00;97.50;;;;;;5034470;28;20402;-87
2021/12/18 08:29:35;;;;;;;6.43;5.50;;;14.90;97.20;;;;;;5033998;28;20174;-93
2021/12/18 08:32:01;;;;;;;9.33;5.83;;;14.60;96.70;;;;;;5016833;28;20427;-88
2021/12/18 08:34:26;;;;;;;7.10;5.50;;;14.30;97.50;;;;;;5016470;28;20177;-93
2021/12/18 08:36:53;;;;;;;7.47;5.67;;;14.20;97.70;;;;;;5009471;28;20186;-87
2021/12/18 08:39:18;;;;;;;6.50;5.87;;;14.10;97.60;;;;;;5016449;28;20209;-88
2021/12/18 08:41:45;;;;;;;7.47;5.80;;;14.20;97.30;;;;;;5016020;28;20841;-88
2021/12/18 08:44:12;;;;;;;6.93;5.50;;;14.30;97.10;;;;;;5019372;28;20177;-88
2021/12/18 08:46:39;;;;;;;6.80;5.07;;;14.50;96.80;;;;;;5038397;28;20418;-88
2021/12/18 08:49:05;;;;;;;6.13;5.30;;;14.90;96.10;;;;;;5020547;28;20475;-88
2021/12/18 08:51:32;;;;;;;7.70;5.10;;;15.30;95.30;;;;;;5038094;28;20443;-88
2021/12/18 08:53:58;;;;;;;8.07;5.37;;;15.90;94.50;;;;;;5020089;28;20469;-92
2021/12/18 08:56:24;;;;;;;6.83;6.10;;;16.40;93.20;;;;;;5020154;28;20455;-93
2021/12/18 08:58:51;;;;;;;9.33;5.70;;;16.60;92.80;;;;;;5020520;28;20403;-92
2021/12/18 09:01:17;;;;;;;9.73;6.10;;;16.80;92.60;;;;;;5038205;28;20442;-92
2021/12/18 09:03:43;;;;;;;9.43;6.07;;;17.10;91.30;;;;;;5038694;28;20777;-93
2021/12/18 09:06:10;;;;;;;7.47;5.80;;;17.30;90.90;;;;;;5020041;28;20463;-93
2021/12/18 09:08:36;;;;;;;6.80;5.37;;;17.40;90.60;;;;;;5043631;28;20474;-88
2021/12/18 09:11:01;;;;;;;5.47;4.93;;;17.50;90.50;;;;;;5037451;28;20912;-93
2021/12/18 09:13:27;;;;;;;7.47;5.30;;;17.50;90.20;;;;;;5037755;28;20166;-88
2021/12/18 09:15:53;;;;;;;6.10;5.10;;;17.50;89.60;;;;;;5019798;28;20398;-88
2021/12/18 09:18:19;;;;;;;7.20;5.80;;;17.60;88.80;;;;;;5020790;28;20626;-88
2021/12/18 09:20:46;;;;;;;6.17;5.10;;;17.80;87.00;;;;;;5019983;28;20194;-93
2021/12/18 09:23:16;;;;;;;5.70;4.77;;;18.00;87.00;;;;;;5037889;28;20456;-94
2021/12/18 09:25:42;;;;;;;6.10;4.87;;;18.20;86.30;;;;;;5019315;28;20443;-93
2021/12/18 09:28:08;;;;;;;7.57;6.07;;;18.40;84.20;;;;;;5037445;28;20509;-92
2021/12/18 09:30:34;;;;;;;5.33;4.33;;;18.60;83.50;;;;;;5037461;28;20802;-88
2021/12/18 09:32:59;;;;;;;7.63;5.33;;;18.80;82.00;;;;;;5021124;28;20600;-93
2021/12/18 09:35:25;;;;;;;6.67;5.40;;;18.80;81.60;;;;;;5020070;28;20410;-88
2021/12/18 09:37:52;;;;;;;10.73;6.20;;;18.60;81.50;;;;;;5019677;28;20424;-88
2021/12/18 09:40:19;;;;;;;7.80;5.40;;;18.20;81.80;;;;;;5037115;28;20190;-88
2021/12/18 09:42:46;;;;;;;6.00;5.37;;;17.80;82.80;;;;;;5038746;28;20435;-88
2021/12/18 09:45:14;;;;;;;6.50;4.70;;;17.20;83.50;;;;;;5020212;28;20514;-88
2021/12/18 09:47:40;;;;;;;6.40;5.50;;;16.80;85.30;;;;;;5037262;28;20829;-88
2021/12/18 09:50:07;;;;;;;5.60;4.70;;;16.60;85.80;;;;;;5020501;28;20411;-87
2021/12/18 09:52:35;;;;;;;7.93;5.73;;;16.40;84.70;;;;;;5037421;28;20743;-93
2021/12/18 09:55:02;;;;;;;7.77;6.10;;;16.30;86.10;;;;;;5036269;28;20424;-93
2021/12/18 09:57:27;;;;;;;7.47;5.50;;;16.10;85.20;;;;;;5019847;28;20402;-88
2021/12/18 09:59:53;;;;;;;7.40;5.43;;;15.80;86.00;;;;;;5036928;28;20420;-88
2021/12/18 10:02:19;;;;;;;9.27;6.40;;;15.60;87.60;;;;;;5019231;28;20182;-92
2021/12/18 10:04:45;;;;;;;7.37;5.17;;;15.40;87.00;;;;;;5036821;28;20208;-88
2021/12/18 10:07:22;;;;;;;6.90;5.40;;;15.00;87.20;;;;;;5019268;28;20413;-88
2021/12/18 10:09:51;;;;;;;9.73;6.17;;;14.70;88.40;;;;;;5024310;28;20478;-89
2021/12/18 10:12:31;;;;;;;11.60;7.40;;;14.40;88.80;;;;;;5030838;28;20462;-93
2021/12/18 10:15:04;;;;;;;8.27;5.93;;;14.00;88.50;;;;;;5021114;28;20493;-88
2021/12/18 10:17:36;;;;;;;6.53;4.37;;;13.60;89.60;;;;;;5018560;28;20431;-88
2021/12/18 10:20:11;;;;;;;8.30;6.30;;;13.30;90.30;;;;;;5036663;28;20412;-88
2021/12/18 10:22:48;;;;;;;8.70;6.00;;;13.00;91.40;;;;;;5036050;28;20423;-93
2021/12/18 10:25:17;;;;;;;10.13;6.33;;;12.90;91.10;;;;;;5018399;28;20442;-88
2021/12/18 10:28:05;;;;;;;10.90;6.70;;;12.80;92.20;;;;;;5019506;28;20478;-93
2021/12/18 10:30:31;;;;;;;9.40;5.37;;;12.80;91.20;;;;;;5037186;28;20577;-88
2021/12/18 10:33:06;;;;;;;10.35;6.00;;;12.80;91.20;;;;;;5037302;28;20427;-93
2021/12/18 10:35:37;;;;;;;4.97;4.45;;;12.80;91.50;;;;;;5018342;28;20794;-88
2021/12/18 10:38:03;;;;;;;10.50;5.77;;;12.80;92.00;;;;;;5036396;28;20210;-88
2021/12/18 10:40:44;;;;;;;6.37;5.40;;;12.70;91.80;;;;;;5035814;28;20427;-93
2021/12/18 10:43:11;;;;;;;9.10;6.17;;;12.70;91.70;;;;;;5036327;28;20536;-88
2021/12/18 10:45:37;;;;;;;9.65;5.90;;;12.60;91.80;;;;;;5035870;28;20419;-93
2021/12/18 10:48:06;;;;;;;8.20;5.70;;;12.40;92.40;;;;;;5017865;28;20249;-87
2021/12/18 10:50:46;;;;;;;7.03;5.65;;;12.30;92.00;;;;;;5018088;28;20958;-88
2021/12/18 10:53:31;;;;;;;9.48;5.85;;;12.20;92.00;;;;;;5035698;28;20165;-88
2021/12/18 10:56:03;;;;;;;8.15;6.13;;;12.00;92.10;;;;;;5017988;28;20237;-88
2021/12/18 10:58:35;;;;;;;8.98;6.43;;;11.90;92.70;;;;;;5036225;28;20269;-93
2021/12/18 11:01:15;;;;;;;9.23;6.47;;;11.70;92.30;;;;;;5017716;28;20209;-87
2021/12/18 11:03:46;;;;;;;9.68;6.82;;;11.60;92.90;;;;;;5018239;28;20591;-93
2021/12/18 11:06:19;;;;;;;7.80;5.53;;;11.50;93.20;;;;;;5035192;28;20273;-93
2021/12/18 11:09:06;;;;;;;7.18;5.13;;;11.30;92.90;;;;;;5017654;28;20214;-88
2021/12/18 11:14:30;;;;;;;6.93;5.15;;;11.10;92.80;;;;;;5049437;28;20190;-87
2021/12/18 11:17:03;;;;;;;6.70;5.20;;;10.90;93.10;;;;;;5052246;28;20190;-89
2021/12/18 11:19:30;;;;;;;4.95;4.03;;;10.90;93.30;;;;;;5028335;28;20197;-94
2021/12/18 11:22:00;;;;;;;6.00;3.95;;;10.80;93.00;;;;;;5019051;28;20191;-88
2021/12/18 11:24:37;;;;;;;5.63;3.80;;;10.80;92.20;;;;;;5017169;28;20178;-93
2021/12/18 11:27:05;;;;;;;6.80;3.92;;;10.70;92.30;;;;;;5033818;28;20186;-92
2021/12/18 11:29:44;;;;;;;2.88;2.67;;;10.70;92.10;;;;;;5017532;28;20185;-92
2021/12/18 11:32:13;;;;;;;5.25;3.10;;;10.70;91.70;;;;;;5017443;28;20221;-88
2021/12/18 11:34:39;;;;;;;5.85;3.13;;;10.70;91.70;;;;;;5017728;28;20179;-93
2021/12/18 11:37:08;;;;;;;5.95;3.53;;;10.70;91.80;;;;;;5017553;28;20182;-87
2021/12/18 11:39:35;;;;;;;3.45;2.80;;;10.70;92.20;;;;;;5015018;28;20182;-88
2021/12/18 11:42:01;;;;;;;2.92;2.70;;;10.80;91.70;;;;;;5032185;28;20257;-93
2021/12/18 11:44:56;;;;;;;4.63;3.83;;;10.80;92.30;;;;;;5015314;28;20178;-87
2021/12/18 11:47:34;;;;;;;4.50;3.65;;;10.90;92.20;;;;;;5015090;28;20218;-88
2021/12/18 11:50:05;;;;;;;4.50;3.95;;;11.00;91.70;;;;;;4996152;28;20325;-92
2021/12/18 11:52:52;;;;;;;6.15;4.40;;;11.00;91.80;;;;;;4996036;28;20180;-88
2021/12/18 11:55:18;;;;;;;5.45;3.70;;;11.00;92.00;;;;;;4997371;28;20195;-88
2021/12/18 11:57:51;;;;;;;5.70;4.10;;;11.00;92.10;;;;;;5014365;28;20670;-93
2021/12/18 12:00:22;;;;;;;5.40;3.63;;;11.00;91.90;;;;;;4998665;28;20950;-92
2021/12/18 12:02:56;;;;;;;6.82;4.25;;;11.00;92.00;;;;;;5005087;28;20197;-89
2021/12/18 12:05:45;;;;;;;6.50;4.15;;;11.00;91.90;;;;;;5027841;28;20205;-88
2021/12/18 12:08:27;;;;;;;4.78;4.05;;;10.90;91.70;;;;;;4998981;28;20233;-93
2021/12/18 12:11:17;;;;;;;6.40;4.53;;;10.90;91.50;;;;;;4997195;28;20195;-87
2021/12/18 12:14:06;;;;;;;8.60;4.60;;;10.90;91.80;;;;;;4997202;28;20167;-93
2021/12/18 12:16:44;;;;;;;6.10;4.93;;;11.00;91.80;;;;;;4997476;28;20203;-93
2021/12/18 12:19:20;;;;;;;5.22;3.72;;;10.90;91.70;;;;;;4996930;28;20179;-88
2021/12/18 12:21:55;;;;;;;6.45;5.65;;;10.90;91.80;;;;;;4996780;28;20246;-91
2021/12/18 12:24:26;;;;;;;7.07;5.38;;;10.80;92.50;;;;;;4997210;28;20181;-93
2021/12/18 12:26:55;;;;;;;6.57;5.35;;;10.80;93.20;;;;;;4996696;28;20183;-93
2021/12/18 12:29:21;;;;;;;7.47;5.90;;;10.80;93.30;;;;;;4985584;28;20211;-88
2021/12/18 12:31:59;;;;;;;9.25;6.22;;;10.80;93.30;;;;;;4976093;28;20211;-89
2021/12/18 12:34:31;;;;;;;12.07;6.78;;;10.80;93.70;;;;;;4993779;28;20258;-88
2021/12/18 12:37:00;;;;;;;11.25;7.20;;;10.80;93.40;;;;;;4976655;28;20184;-93
2021/12/18 12:39:46;;;;;;;10.07;6.72;;;10.70;93.40;;;;;;4993820;28;20180;-87
2021/12/18 12:42:12;;;;;;;8.88;6.18;;;10.70;92.90;;;;;;4994434;28;20215;-91
2021/12/18 12:44:49;;;;;;;10.63;7.20;;;10.60;93.10;;;;;;4976500;28;20591;-88
2021/12/18 12:47:20;;;;;;;8.93;6.57;;;10.60;93.10;;;;;;4978201;28;20425;-87
2021/12/18 12:49:49;;;;;;;7.82;6.68;;;10.50;92.70;;;;;;4997106;28;20249;-92
2021/12/18 12:52:18;;;;;;;6.20;5.30;;;10.40;93.00;;;;;;4997198;28;20180;-88
2021/12/18 12:54:47;;;;;;;10.57;6.65;;;10.40;93.00;;;;;;4996809;28;20176;-93
2021/12/18 12:57:26;;;;;;;11.63;8.60;;;10.40;93.50;;;;;;4997738;28;20242;-88
2021/12/18 13:00:05;;;;;;;10.52;8.32;;;10.40;93.50;;;;;;5014452;28;20225;-88
2021/12/18 13:02:53;;;;;;;26.45;16.13;;;10.40;94.10;;;;;;5000379;28;20590;-88
2021/12/18 13:05:20;;;;;;;53.72;33.55;;;10.40;94.00;;;;;;4998966;28;20215;-93
2021/12/18 13:07:56;;;;;;;28.00;18.30;;;10.40;93.50;;;;;;5007906;28;20227;-88
2021/12/18 13:10:35;;;;;;;16.13;10.43;;;10.50;94.00;;;;;;5015906;28;20563;-93
2021/12/18 13:13:07;;;;;;;35.05;25.60;;;10.50;94.50;;;;;;4996685;28;20201;-88
2021/12/18 13:15:54;;;;;;;11.10;9.00;;;10.60;93.50;;;;;;4996500;28;20241;-93
2021/12/18 13:18:30;;;;;;;11.05;7.07;;;10.50;93.70;;;;;;4997087;28;20658;-88
2021/12/18 13:21:04;;;;;;;8.32;7.00;;;10.50;93.90;;;;;;5029422;28;20215;-88
2021/12/18 13:23:37;;;;;;;16.45;9.43;;;10.40;94.50;;;;;;5014156;28;20536;-94
2021/12/18 13:26:05;;;;;;;9.77;7.53;;;10.30;94.30;;;;;;5014059;28;20199;-87
2021/12/18 13:28:30;;;;;;;21.35;13.68;;;10.20;94.00;;;;;;4996219;28;20302;-88
2021/12/18 13:30:56;;;;;;;18.17;12.53;;;10.20;94.70;;;;;;5031126;28;20234;-92
2021/12/18 13:33:25;;;;;;;11.48;9.05;;;10.10;94.50;;;;;;5033325;28;20205;-93
2021/12/18 13:35:57;;;;;;;10.15;6.57;;;10.10;94.20;;;;;;5032966;28;20234;-88
2021/12/18 13:38:23;;;;;;;13.18;8.98;;;10.10;94.10;;;;;;5000904;28;20217;-88
2021/12/18 13:40:50;;;;;;;11.10;8.35;;;10.10;93.90;;;;;;5000154;28;20199;-93
2021/12/18 13:43:21;;;;;;;34.97;21.08;;;10.00;93.40;;;;;;5000057;28;20175;-94
2021/12/18 13:46:06;;;;;;;68.07;26.30;;;9.90;93.90;;;;;;4999521;28;20195;-93